FQNC

Nacala Airport

Nacala, Mozambique
METAR FQNC 181400Z 12013KT 9999 SCT020 27/20 Q1018
Observed Flight Rules
Aug-18 @ 14:00 UTC (51 minutes ago) Visual Flight Rules
Wind Visibility Clouds
120° at 13 knots 10,000+ meters
  • Scattered at 2,000' AGL
Temperatures Readings
Current 27°C / 81°F
Dewpoint 20°C / 68°F
Humidity 66%
Altimeter 30.06" Hg
Pressure 1018 hPa
Elevation 125
METAR FQNC 181400Z 12013KT 9999 SCT020 27/20 Q1018
Observed Flight Rules
Aug-18 @ 14:00 UTC
(51 minutes ago)
VFR
Wind Visibility
120° at 13 knots 10,000+ meters
Clouds
  • Scattered at 2,000' AGL
Temperature Dewpoint
27°C / 81°F 20°C / 68°F
Humidity Altimeter Pressure
66% 30.06" Hg 1018 hPa